Time;durP1;ratioP1;P1;durP2;ratioP2;P2;SDS_P1;SDS_P2;PMS_P1;PMS_P2;Temp;Humidity;BMP_temperature;BMP_pressure;BME280_temperature;BME280_humidity;BME280_pressure;Samples;Min_cycle;Max_cycle;Signal;HPM_P1;HPM_P2
2022/02/25 00:39:39;;;;;;;22.30;2.58;;;;;;;2.22;100.00;99365.25;5477338;24;20042;-84
2022/02/25 00:42:07;;;;;;;21.73;2.40;;;;;;;1.78;100.00;99291.69;4796075;29;20024;-84
2022/02/25 00:44:37;;;;;;;35.63;3.30;;;;;;;2.04;100.00;99323.13;4795491;29;20100;-84
2022/02/25 00:47:03;;;;;;;19.50;2.70;;;;;;;2.26;100.00;99347.97;4813137;29;20107;-85
2022/02/25 02:00:59;;;;;;;20.73;2.38;;;;;;;1.78;100.00;99387.16;5294464;24;20119;-84
2022/02/25 02:03:27;;;;;;;18.23;2.53;;;;;;;2.83;100.00;99557.19;4793006;29;20024;-83
2022/02/25 04:40:13;;;;;;;18.73;2.25;;;;;;;2.83;100.00;99638.72;5800927;24;20082;-74
2022/02/25 04:42:39;;;;;;;18.67;2.30;;;;;;;2.81;100.00;99641.56;4778546;29;20044;-83
2022/02/25 04:45:06;;;;;;;15.88;2.83;;;;;;;2.80;100.00;99631.09;4777835;30;20040;-84
2022/02/25 04:47:32;;;;;;;19.55;2.13;;;;;;;2.82;100.00;99637.91;4777457;30;20036;-83
2022/02/25 04:49:57;;;;;;;16.65;2.53;;;;;;;2.88;100.00;99644.34;4777874;30;20050;-83
2022/02/25 04:52:24;;;;;;;18.38;2.83;;;;;;;2.75;100.00;99621.03;4787762;29;20008;-83
2022/02/25 04:54:49;;;;;;;22.45;3.03;;;;;;;2.88;100.00;99632.88;4795985;29;20023;-83
2022/02/25 04:57:15;;;;;;;24.25;3.35;;;;;;;2.95;100.00;99639.16;4809933;29;20020;-83
2022/02/25 04:59:40;;;;;;;14.18;2.33;;;;;;;2.95;100.00;99644.47;4795359;29;20049;-83
2022/02/25 05:02:07;;;;;;;24.58;2.70;;;;;;;2.93;100.00;99646.44;4788035;29;20498;-83
2022/02/25 05:04:32;;;;;;;31.58;3.28;;;;;;;2.73;100.00;99615.06;4807020;29;20047;-83
2022/02/25 05:09:33;;;;;;;18.00;2.58;;;;;;;1.32;100.00;99408.31;5217282;24;20036;-84
2022/02/25 05:30:35;;;;;;;30.73;3.83;;;;;;;1.49;100.00;99461.25;5543043;24;20040;-84
2022/02/25 06:47:56;;;;;;;25.10;2.92;;;;;;;1.85;100.00;99567.63;5511396;24;20060;-83
2022/02/25 06:55:32;;;;;;;24.63;3.20;;;;;;;3.04;100.00;99745.16;5212358;24;20044;-85
2022/02/25 07:31:34;;;;;;;21.15;2.88;;;;;;;3.22;100.00;99741.41;5299307;24;20048;-84
2022/02/25 07:34:00;;;;;;;20.50;2.50;;;;;;;2.23;100.00;99591.66;4778472;29;20071;-84
2022/02/25 07:44:11;;;;;;;25.08;3.05;;;;;;;3.00;100.00;99692.56;5055238;24;20577;-78
2022/02/25 07:49:12;;;;;;;25.17;2.92;;;;;;;2.23;100.00;99560.63;4803564;24;20056;-83
2022/02/25 07:54:12;;;;;;;21.50;3.17;;;;;;;3.75;100.00;99791.00;5669720;24;20056;-81
2022/02/25 07:56:38;;;;;;;26.10;3.30;;;;;;;2.38;100.00;99552.72;4768717;29;20112;-79
2022/02/25 07:59:03;;;;;;;23.83;2.88;;;;;;;3.84;100.00;99777.63;4787337;30;20470;-85
2022/02/25 08:01:29;;;;;;;24.55;2.90;;;;;;;4.31;100.00;99843.91;4773342;29;20100;-84
2022/02/25 08:03:54;;;;;;;27.38;3.15;;;;;;;4.39;100.00;99842.97;4782139;29;20036;-78
2022/02/25 08:06:21;;;;;;;28.67;3.55;;;;;;;4.27;100.00;99810.63;4785949;29;20028;-85
2022/02/25 08:08:46;;;;;;;28.35;2.80;;;;;;;4.48;100.00;99842.72;4758750;30;20052;-84
2022/02/25 08:11:11;;;;;;;27.73;4.22;;;;;;;4.50;100.00;99845.19;5159438;24;20041;-84
2022/02/25 08:13:37;;;;;;;25.33;3.70;;;;;;;4.55;100.00;99850.78;4763941;30;20039;-83
2022/02/25 08:16:03;;;;;;;28.85;3.45;;;;;;;4.66;100.00;99870.81;4762546;30;20079;-83
2022/02/25 08:18:28;;;;;;;25.58;3.53;;;;;;;4.70;100.00;99859.63;4778174;30;20041;-83
2022/02/25 08:20:54;;;;;;;27.40;3.38;;;;;;;4.78;100.00;99881.88;4761326;30;20017;-83
2022/02/25 08:23:19;;;;;;;27.05;3.20;;;;;;;4.77;100.00;99883.72;4770606;29;20023;-84
2022/02/25 08:25:44;;;;;;;18.85;2.83;;;;;;;4.77;100.00;99888.19;4790225;29;20028;-83
2022/02/25 08:28:10;;;;;;;23.13;2.90;;;;;;;4.77;100.00;99901.50;4790145;29;20031;-83
2022/02/25 08:30:37;;;;;;;30.83;3.15;;;;;;;4.84;100.00;99897.13;4759660;30;20040;-84
2022/02/25 08:33:03;;;;;;;22.33;2.70;;;;;;;4.83;100.00;99898.09;4759688;30;20016;-84
2022/02/25 08:35:31;;;;;;;27.13;4.05;;;;;;;4.84;100.00;99881.94;4759829;30;20055;-84
2022/02/25 09:37:23;;;;;;;19.85;2.92;;;;;;;4.13;100.00;99856.72;4848485;24;20072;-86
2022/02/25 09:42:24;;;;;;;15.00;2.42;;;;;;;4.27;100.00;99820.47;5016564;24;20048;-82
2022/02/25 09:52:36;;;;;;;15.75;2.10;;;;;;;5.18;100.00;100020.03;5735818;24;20478;-82
2022/02/25 10:05:25;;;;;;;22.83;2.78;;;;;;;5.52;100.00;100069.34;5099387;24;20048;-84
2022/02/25 10:15:37;;;;;;;15.18;2.20;;;;;;;3.80;100.00;99779.81;5662072;24;20017;-81
2022/02/25 10:23:24;;;;;;;18.58;2.05;;;;;;;3.90;100.00;99854.91;5281049;24;20051;-87
2022/02/25 10:25:50;;;;;;;15.85;2.63;;;;;;;5.45;100.00;100064.94;4792290;29;20047;-83
2022/02/25 11:48:37;;;;;;;16.85;2.97;;;;;;;4.62;100.00;99936.97;5247713;24;20063;-81
2022/02/25 11:51:03;;;;;;;19.27;2.72;;;;;;;4.77;100.00;99957.47;4792418;29;20036;-84
2022/02/25 11:53:29;;;;;;;8.52;1.52;;;;;;;4.71;100.00;99954.53;4798433;29;20091;-83
2022/02/25 11:56:16;;;;;;;19.40;3.15;;;;;;;6.46;100.00;100208.44;5242225;24;21008;-82
2022/02/25 12:01:22;;;;;;;15.35;2.33;;;;;;;5.50;100.00;100041.22;5614501;24;20052;-84
2022/02/25 12:09:03;;;;;;;16.05;2.40;;;;;;;5.16;100.00;99989.22;5743865;24;20022;-83
2022/02/25 12:11:34;;;;;;;16.30;2.47;;;;;;;6.08;100.00;100136.44;4809139;29;20035;-83
2022/02/25 12:57:58;;;;;;;20.58;1.95;;;;;;;7.03;100.00;100284.41;5029327;24;20060;-81
2022/02/25 13:03:00;;;;;;;16.13;2.10;;;;;;;7.16;100.00;100297.91;5567369;24;20289;-85
2022/02/25 13:05:25;;;;;;;19.48;2.80;;;;;;;6.31;100.00;100226.34;5052066;24;20071;-84
2022/02/25 13:07:58;;;;;;;22.35;2.40;;;;;;;6.91;100.00;100318.81;4800901;29;20058;-84
2022/02/25 13:15:34;;;;;;;17.67;2.53;;;;;;;5.51;100.00;100157.59;5474455;24;20304;-83
2022/02/25 13:30:56;;;;;;;17.10;2.50;;;;;;;5.25;100.00;100134.81;5244899;24;20055;-83
2022/02/25 13:33:22;;;;;;;19.67;2.45;;;;;;;5.93;100.00;100263.81;4812872;29;20031;-84
2022/02/25 13:35:54;;;;;;;25.15;2.78;;;;;;;6.66;100.00;100369.09;4803975;29;20020;-82
2022/02/25 13:38:22;;;;;;;22.52;2.97;;;;;;;4.91;100.00;100106.78;4821728;29;20027;-85
2022/02/25 13:40:55;;;;;;;26.40;3.13;;;;;;;5.77;100.00;100223.91;4816396;29;20024;-85
2022/02/25 13:56:16;;;;;;;19.90;2.83;;;;;;;5.24;100.00;100201.69;5264620;24;20048;-84
2022/02/25 15:30:34;;;;;;;18.75;2.65;;;;;;;4.02;100.00;100329.16;4798018;29;20048;-82
2022/02/25 15:35:35;;;;;;;15.40;2.20;;;;;;;5.17;100.00;100530.47;4951585;24;20043;-80
2022/02/25 15:38:00;;;;;;;17.48;2.35;;;;;;;5.68;100.00;100612.03;4801474;29;20107;-82
2022/02/25 15:40:26;;;;;;;14.45;1.90;;;;;;;5.65;100.00;100611.38;4811010;29;20031;-81
2022/02/25 15:42:52;;;;;;;13.98;2.40;;;;;;;5.52;100.00;100591.56;4802557;29;20042;-81
2022/02/25 15:45:18;;;;;;;17.42;1.73;;;;;;;5.63;100.00;100618.75;4808315;29;20043;-81
2022/02/25 15:47:44;;;;;;;11.07;1.95;;;;;;;5.52;100.00;100611.06;4816359;29;20069;-82
2022/02/25 15:50:10;;;;;;;16.40;2.00;;;;;;;5.58;100.00;100654.94;4867878;24;20062;-81
2022/02/25 15:52:35;;;;;;;18.88;2.00;;;;;;;3.81;100.00;100390.91;5308639;24;20043;-81
2022/02/25 15:55:02;;;;;;;13.00;1.40;;;;;;;4.23;100.00;100481.25;5274912;24;20052;-82
2022/02/25 16:00:07;;;;;;;14.70;2.17;;;;;;;4.24;100.00;100520.22;5352015;24;20059;-81
2022/02/25 16:13:04;;;;;;;18.05;1.83;;;;;;;4.79;100.00;100723.13;4751396;30;20049;-80
2022/02/25 16:15:34;;;;;;;15.80;1.70;;;;;;;4.68;100.00;100719.78;4755726;30;20041;-81
2022/02/25 16:18:01;;;;;;;18.70;2.47;;;;;;;4.70;100.00;100727.59;4754838;30;20041;-80
2022/02/25 16:20:27;;;;;;;17.98;2.50;;;;;;;4.62;100.00;100735.56;4750777;30;20051;-80
2022/02/25 16:22:52;;;;;;;21.33;2.17;;;;;;;4.65;100.00;100745.91;4741944;30;20104;-81
2022/02/25 16:25:17;;;;;;;21.27;1.95;;;;;;;4.64;100.00;100765.59;4752409;30;20040;-80
2022/02/25 16:27:44;;;;;;;22.90;2.58;;;;;;;4.63;100.00;100787.88;4750759;30;20041;-80
2022/02/25 16:30:11;;;;;;;20.83;2.70;;;;;;;4.61;100.00;100801.38;4747298;29;20028;-81
2022/02/25 16:35:12;;;;;;;16.73;2.20;;;;;;;3.91;100.00;100728.78;5529056;24;20043;-82
2022/02/25 16:37:39;;;;;;;16.13;2.00;;;;;;;2.54;100.00;100529.91;4791582;29;20044;-82
2022/02/25 16:40:06;;;;;;;17.42;2.15;;;;;;;2.41;100.00;100518.00;4783961;30;20040;-81
2022/02/25 16:42:32;;;;;;;15.07;2.05;;;;;;;3.08;100.00;100660.06;4753306;30;20020;-81
2022/02/25 16:44:57;;;;;;;15.30;1.88;;;;;;;2.56;100.00;100580.22;4769684;30;20047;-81
2022/02/25 16:47:23;;;;;;;15.88;2.13;;;;;;;3.22;100.00;100694.06;4785796;29;20043;-81
2022/02/25 16:49:49;;;;;;;17.15;3.05;;;;;;;2.31;100.00;100556.09;4785469;30;20043;-82
2022/02/25 16:52:15;;;;;;;27.08;3.55;;;;;;;3.58;100.00;100768.47;4778885;30;20046;-81
2022/02/25 16:54:40;;;;;;;18.20;2.05;;;;;;;3.38;100.00;100751.88;4770658;30;20511;-80
2022/02/25 16:57:06;;;;;;;18.90;2.00;;;;;;;4.15;100.00;100866.56;4766697;30;20615;-80
2022/02/25 16:59:34;;;;;;;27.13;2.20;;;;;;;3.30;100.00;100743.81;4766484;30;20043;-80
2022/02/25 17:02:00;;;;;;;16.02;2.20;;;;;;;4.05;100.00;100871.13;4771084;30;20092;-81
2022/02/25 17:04:25;;;;;;;18.27;2.40;;;;;;;4.11;100.00;100898.00;4784265;30;20040;-79
2022/02/25 17:06:51;;;;;;;27.73;2.50;;;;;;;3.92;100.00;100893.66;4788842;30;20066;-81
2022/02/25 17:09:19;;;;;;;17.20;2.85;;;;;;;3.88;100.00;100912.78;4774460;30;20040;-81
2022/02/25 17:11:45;;;;;;;15.43;1.90;;;;;;;3.88;100.00;100940.22;4770328;30;20039;-81
2022/02/25 17:14:10;;;;;;;16.50;2.38;;;;;;;3.80;100.00;100926.00;4786472;30;20059;-81
2022/02/25 17:16:36;;;;;;;17.00;2.15;;;;;;;3.86;100.00;100941.34;4770867;30;20036;-81
2022/02/25 17:19:01;;;;;;;21.55;2.10;;;;;;;3.92;100.00;100952.22;4769797;30;20135;-81
2022/02/25 17:21:27;;;;;;;16.15;2.25;;;;;;;3.89;100.00;100951.69;4770607;30;20439;-81
2022/02/25 17:23:52;;;;;;;20.15;3.47;;;;;;;3.84;100.00;100952.16;4768015;30;20434;-81
2022/02/25 17:26:19;;;;;;;21.05;1.88;;;;;;;3.89;100.00;100975.66;4775283;30;20046;-81
2022/02/25 17:28:45;;;;;;;20.70;2.58;;;;;;;3.82;100.00;100991.41;4769464;30;20036;-80
2022/02/25 17:31:11;;;;;;;17.65;2.10;;;;;;;3.78;100.00;100999.84;4765947;30;20039;-80
2022/02/25 17:33:38;;;;;;;13.77;1.75;;;;;;;3.68;100.00;101008.72;4768300;30;20032;-81
2022/02/25 17:36:04;;;;;;;16.65;2.10;;;;;;;3.70;100.00;101021.88;4756617;30;20060;-80
2022/02/25 17:38:29;;;;;;;21.58;3.13;;;;;;;3.72;100.00;101039.38;4774152;30;20093;-81
2022/02/25 17:40:55;;;;;;;11.98;1.60;;;;;;;3.59;100.00;101033.56;4771079;30;20042;-82
2022/02/25 17:43:20;;;;;;;17.75;1.60;;;;;;;3.62;100.00;101078.50;4786520;30;20032;-81
2022/02/25 17:45:46;;;;;;;16.42;2.25;;;;;;;2.92;100.00;100986.81;4873145;24;20055;-80
2022/02/25 17:48:12;;;;;;;17.30;2.03;;;;;;;3.47;100.00;101066.66;4793759;29;20063;-83
2022/02/25 17:53:14;;;;;;;9.23;1.60;;;;;;;2.38;100.00;100916.63;5308757;24;20299;-81
2022/02/25 18:16:21;;;;;;;12.60;1.88;;;;;;;3.56;100.00;101172.22;4858632;24;20052;-82
2022/02/25 18:23:59;;;;;;;8.93;1.73;;;;;;;1.96;100.00;100939.03;4875983;24;20047;-83
2022/02/25 18:26:25;;;;;;;12.90;1.90;;;;;;;1.93;100.00;100965.84;5199810;24;20021;-81
2022/02/25 18:28:51;;;;;;;13.63;1.80;;;;;;;3.46;100.00;101198.84;5229987;24;20030;-84
2022/02/25 18:31:16;;;;;;;10.98;1.58;;;;;;;3.52;100.00;101197.44;4791988;29;20152;-81
2022/02/25 18:33:41;;;;;;;10.18;1.92;;;;;;;3.50;100.00;101197.56;4780313;30;20040;-82
2022/02/25 18:36:07;;;;;;;12.05;1.70;;;;;;;3.44;100.00;101202.63;4778031;30;20463;-81
2022/02/25 18:38:32;;;;;;;7.47;1.33;;;;;;;3.37;100.00;101199.69;4776849;30;19937;-82
2022/02/25 18:40:58;;;;;;;8.95;1.00;;;;;;;3.54;100.00;101224.72;4784022;30;20035;-82
2022/02/25 18:43:23;;;;;;;12.07;1.35;;;;;;;3.56;100.00;101235.22;4774136;30;20044;-79
2022/02/25 18:45:48;;;;;;;6.80;1.25;;;;;;;3.55;100.00;101236.22;4768759;30;20075;-79
2022/02/25 18:48:14;;;;;;;11.32;1.08;;;;;;;3.22;100.00;101193.16;4770022;30;20107;-78
2022/02/25 18:50:39;;;;;;;6.63;1.35;;;;;;;3.61;100.00;101260.44;4776355;30;20425;-81
2022/02/25 18:53:05;;;;;;;9.20;1.35;;;;;;;3.60;100.00;101273.88;4793863;29;20126;-80
2022/02/25 18:55:30;;;;;;;6.47;1.15;;;;;;;3.58;100.00;101295.31;4779114;30;20051;-83
2022/02/25 19:00:27;;;;;;;9.35;1.30;;;;;;;3.45;100.00;101287.63;4775699;30;20356;-79
2022/02/25 19:02:54;;;;;;;8.90;1.58;;;;;;;3.49;100.00;101317.44;4774452;30;20031;-79
2022/02/25 19:05:20;;;;;;;7.68;1.17;;;;;;;3.36;100.00;101311.56;4795450;30;20035;-81
2022/02/25 19:07:45;;;;;;;5.50;1.10;;;;;;;1.78;100.00;101073.34;5158128;24;20055;-81
2022/02/25 19:10:11;;;;;;;5.90;1.50;;;;;;;2.58;100.00;101226.38;4781966;29;20107;-81
2022/02/25 19:12:36;;;;;;;7.35;1.20;;;;;;;2.84;100.00;101269.22;4783302;30;20039;-80
2022/02/25 19:15:04;;;;;;;5.90;1.20;;;;;;;2.57;100.00;101212.28;4780839;30;20114;-81
2022/02/25 19:17:30;;;;;;;4.65;1.08;;;;;;;3.52;100.00;101368.56;4795737;29;20031;-81
2022/02/25 19:19:57;;;;;;;6.63;1.23;;;;;;;1.70;100.00;101097.06;4806585;29;20043;-79
2022/02/25 19:22:22;;;;;;;8.43;1.20;;;;;;;3.47;100.00;101396.53;4778559;29;20111;-80
2022/02/25 19:24:48;;;;;;;6.65;1.55;;;;;;;3.39;100.00;101396.41;4774079;30;20077;-80
2022/02/25 19:27:13;;;;;;;7.20;1.13;;;;;;;3.35;100.00;101406.47;4773394;30;20028;-80
2022/02/25 19:29:41;;;;;;;8.32;1.02;;;;;;;3.27;100.00;101398.34;4778567;30;20057;-80
2022/02/25 19:32:08;;;;;;;7.35;1.30;;;;;;;3.35;100.00;101421.59;4781954;30;20116;-79
2022/02/25 19:34:34;;;;;;;7.78;1.38;;;;;;;3.27;100.00;101430.25;4774260;30;20042;-80
2022/02/25 19:36:59;;;;;;;4.43;1.13;;;;;;;3.19;100.00;101438.91;4777615;30;20039;-79
2022/02/25 19:39:26;;;;;;;5.45;1.17;;;;;;;3.13;100.00;101438.63;4776587;30;20032;-80
2022/02/25 19:41:52;;;;;;;6.10;0.90;;;;;;;3.11;100.00;101451.19;4762462;30;20063;-80
2022/02/25 19:44:18;;;;;;;3.25;0.80;;;;;;;3.08;100.00;101452.31;4796606;30;20031;-78
2022/02/25 19:46:43;;;;;;;5.00;0.90;;;;;;;3.09;100.00;101458.47;4806028;29;20092;-80
2022/02/25 19:49:09;;;;;;;4.25;1.00;;;;;;;3.07;100.00;101469.22;4793834;29;20042;-81
2022/02/25 19:51:34;;;;;;;2.70;0.70;;;;;;;3.09;100.00;101469.97;4780218;30;20027;-80
2022/02/25 19:54:00;;;;;;;2.45;0.63;;;;;;;3.02;100.00;101474.13;4754746;30;20375;-80
2022/02/25 19:56:25;;;;;;;5.95;0.80;;;;;;;3.16;100.00;101494.19;4767025;30;20089;-79
2022/02/25 19:58:51;;;;;;;3.40;0.70;;;;;;;3.14;100.00;101496.97;4777956;29;20451;-79
2022/02/25 20:01:16;;;;;;;3.88;0.60;;;;;;;3.17;100.00;101504.69;4774073;30;20107;-81
2022/02/25 20:11:27;;;;;;;4.35;0.90;;;;;;;2.30;100.00;101393.47;5253511;24;20044;-81
2022/02/25 20:13:53;;;;;;;6.30;1.35;;;;;;;2.66;100.00;101467.50;4807540;29;20098;-82
2022/02/25 20:16:19;;;;;;;2.15;0.70;;;;;;;2.58;100.00;101460.19;5012577;24;20063;-83
2022/02/25 20:18:44;;;;;;;3.17;0.73;;;;;;;3.08;100.00;101531.22;4817047;29;20107;-82
2022/02/25 20:21:10;;;;;;;2.17;0.80;;;;;;;3.37;100.00;101592.53;4799716;29;20064;-85
2022/02/25 20:23:35;;;;;;;1.95;0.60;;;;;;;3.32;100.00;101595.63;4803621;29;20019;-84
2022/02/25 20:57:04;;;;;;;1.92;0.70;;;;;;;1.13;100.00;101372.31;5318367;24;20487;-83
2022/02/25 20:59:29;;;;;;;3.40;0.80;;;;;;;3.06;100.00;101706.88;4800123;29;20019;-84
2022/02/25 21:01:55;;;;;;;3.72;0.60;;;;;;;3.03;100.00;101720.41;4799314;29;20026;-84
2022/02/25 21:04:21;;;;;;;3.78;0.80;;;;;;;2.89;100.00;101708.25;4795272;29;20039;-83
2022/02/25 21:06:46;;;;;;;2.00;0.50;;;;;;;2.97;100.00;101724.41;4795154;29;20028;-83
2022/02/25 21:09:12;;;;;;;1.77;0.80;;;;;;;2.91;100.00;101759.47;4795019;29;20050;-83
2022/02/25 21:11:39;;;;;;;2.15;0.70;;;;;;;2.89;100.00;101755.28;4797007;29;20020;-84
2022/02/25 21:14:05;;;;;;;1.42;0.55;;;;;;;2.77;100.00;101752.63;4794826;29;20035;-84
2022/02/25 21:16:30;;;;;;;3.25;0.68;;;;;;;2.70;100.00;101753.25;4795585;29;20047;-84
2022/02/25 21:19:01;;;;;;;2.22;0.60;;;;;;;2.79;100.00;101765.81;4801545;29;20083;-82
2022/02/25 21:21:26;;;;;;;2.35;0.50;;;;;;;2.82;100.00;101785.00;4798007;29;20092;-84
2022/02/25 21:23:52;;;;;;;1.77;0.40;;;;;;;2.78;100.00;101791.56;4799416;29;20101;-84
2022/02/25 21:26:17;;;;;;;1.77;0.52;;;;;;;2.61;100.00;101778.75;4795116;29;20031;-84
2022/02/25 21:28:43;;;;;;;1.80;0.60;;;;;;;2.69;100.00;101823.34;4795225;29;20046;-84
2022/02/25 21:31:08;;;;;;;4.50;0.63;;;;;;;2.71;100.00;101819.56;4794631;29;20051;-85
2022/02/25 21:33:33;;;;;;;3.10;1.05;;;;;;;2.72;100.00;101831.06;4792750;29;20040;-84
2022/02/25 21:36:00;;;;;;;2.40;0.65;;;;;;;2.56;100.00;101823.47;4799342;29;20035;-84
2022/02/25 21:38:26;;;;;;;1.00;0.55;;;;;;;2.54;100.00;101851.97;4783812;29;20099;-83
2022/02/25 21:40:53;;;;;;;1.42;0.50;;;;;;;2.50;100.00;101858.47;4800052;29;20082;-82
2022/02/25 21:43:19;;;;;;;2.40;0.60;;;;;;;2.34;100.00;101846.41;4797557;29;20039;-83
2022/02/25 21:45:44;;;;;;;2.60;0.70;;;;;;;2.49;100.00;101880.72;4795736;29;20024;-81
2022/02/25 21:48:10;;;;;;;1.70;0.40;;;;;;;2.31;100.00;101864.38;4792193;29;20038;-82
2022/02/25 21:50:35;;;;;;;1.00;0.40;;;;;;;2.40;100.00;101886.72;4794164;29;20038;-84
2022/02/25 21:53:01;;;;;;;5.03;0.68;;;;;;;2.37;100.00;101894.94;4801173;29;20020;-84
2022/02/25 21:55:26;;;;;;;1.33;0.50;;;;;;;2.39;100.00;101901.00;4797674;29;20609;-83
2022/02/25 21:57:52;;;;;;;1.83;0.68;;;;;;;2.21;100.00;101888.16;4794723;29;20067;-82
2022/02/25 22:00:18;;;;;;;2.53;0.60;;;;;;;2.24;100.00;101913.63;4789437;29;20025;-83
2022/02/25 22:02:43;;;;;;;1.55;0.65;;;;;;;2.16;100.00;101914.22;4799192;29;20039;-82
2022/02/25 22:05:10;;;;;;;3.40;0.80;;;;;;;1.36;100.00;101811.44;4962432;24;20063;-79
2022/02/25 22:07:37;;;;;;;1.27;0.47;;;;;;;1.90;100.00;101899.44;4794210;29;20023;-82
2022/02/25 22:10:03;;;;;;;2.78;0.63;;;;;;;2.06;100.00;101929.16;4790680;29;20016;-82
2022/02/25 22:12:28;;;;;;;1.42;0.40;;;;;;;1.99;100.00;101918.16;4792360;30;20016;-82
2022/02/25 22:14:54;;;;;;;2.63;0.68;;;;;;;1.98;100.00;101928.88;4777030;30;20065;-82
2022/02/25 22:17:21;;;;;;;1.88;0.55;;;;;;;1.81;100.00;101922.19;4791478;29;20012;-82
2022/02/25 22:19:46;;;;;;;2.42;0.70;;;;;;;1.72;100.00;101915.75;4795326;30;20046;-82
2022/02/25 22:22:13;;;;;;;2.15;0.57;;;;;;;1.67;100.00;101925.88;4809889;30;20019;-82
2022/02/25 22:24:39;;;;;;;0.93;0.40;;;;;;;1.65;100.00;101933.94;4793723;29;20034;-82
2022/02/25 22:27:05;;;;;;;1.60;0.60;;;;;;;1.64;100.00;101958.78;4778986;30;20020;-81
2022/02/25 22:29:30;;;;;;;6.82;0.90;;;;;;;1.57;100.00;101975.25;4793759;29;20020;-82
2022/02/25 22:31:55;;;;;;;2.95;0.70;;;;;;;1.50;100.00;101977.50;4783566;29;20030;-82
2022/02/25 22:34:22;;;;;;;1.98;0.60;;;;;;;1.29;100.00;101968.44;4801241;29;20035;-82
2022/02/25 22:36:48;;;;;;;2.30;0.75;;;;;;;1.26;100.00;101980.13;4799765;29;20032;-82
2022/02/25 22:39:13;;;;;;;1.67;0.65;;;;;;;1.28;100.00;101993.28;4785706;29;20068;-82
2022/02/25 22:41:40;;;;;;;2.83;0.80;;;;;;;1.14;100.00;101976.53;4810508;29;20035;-81
2022/02/25 22:44:05;;;;;;;3.53;0.93;;;;;;;1.23;100.00;101996.25;4792540;30;20031;-82
2022/02/25 22:46:30;;;;;;;1.63;0.80;;;;;;;0.96;100.00;101971.69;4788106;30;20111;-81
2022/02/25 22:48:56;;;;;;;2.28;0.70;;;;;;;1.07;100.00;102015.03;4786085;30;20050;-81
2022/02/25 22:59:35;;;;;;;2.90;0.70;;;;;;;0.58;100.00;101994.59;4783860;30;20046;-81
2022/02/25 23:02:04;;;;;;;3.03;0.60;;;;;;;0.43;100.00;101988.56;4788356;29;20036;-81
2022/02/25 23:07:01;;;;;;;1.17;0.50;;;;;;;0.51;100.00;102035.69;4785128;30;20058;-81
2022/02/25 23:07:20;;;;;;;1.65;0.47;;;;;;;0.57;100.00;102076.81;4783935;30;20063;-81
2022/02/25 23:09:45;;;;;;;3.20;0.50;;;;;;;0.51;100.00;102063.97;4766505;30;20032;-82
2022/02/25 23:12:11;;;;;;;3.28;0.70;;;;;;;0.56;100.00;102083.88;4767015;30;20446;-81
2022/02/25 23:14:38;;;;;;;2.13;0.50;;;;;;;0.45;100.00;102068.72;4766449;30;20036;-81
2022/02/25 23:17:03;;;;;;;1.70;0.60;;;;;;;0.54;100.00;102085.81;4767409;30;20080;-81
2022/02/25 23:19:29;;;;;;;1.45;0.45;;;;;;;0.48;100.00;102083.56;4783819;30;20066;-80
2022/02/25 23:21:59;;;;;;;1.90;0.70;;;;;;;0.46;100.00;102099.56;4782141;30;20062;-81
2022/02/25 23:24:24;;;;;;;2.63;0.65;;;;;;;0.43;100.00;102107.72;4766806;30;20042;-81
2022/02/25 23:26:49;;;;;;;3.20;0.70;;;;;;;0.35;100.00;102104.72;4771522;30;20064;-82
2022/02/25 23:29:15;;;;;;;1.83;0.60;;;;;;;0.35;100.00;102128.53;4784364;30;20039;-81
2022/02/25 23:31:40;;;;;;;2.45;0.70;;;;;;;0.10;100.00;102094.00;4779653;30;20467;-80
2022/02/25 23:34:05;;;;;;;2.95;0.80;;;;;;;0.36;100.00;102143.47;4764634;30;20043;-81
2022/02/25 23:36:31;;;;;;;2.35;0.68;;;;;;;0.34;100.00;102148.03;4775316;30;20098;-81
2022/02/25 23:38:56;;;;;;;3.03;0.85;;;;;;;0.22;100.00;102130.28;4778672;30;20044;-81
2022/02/25 23:41:21;;;;;;;2.35;0.82;;;;;;;0.38;100.00;102160.13;4771286;30;20149;-81
2022/02/25 23:43:47;;;;;;;2.22;0.57;;;;;;;0.30;100.00;102143.91;4782076;30;20051;-80
2022/02/25 23:46:12;;;;;;;2.33;0.70;;;;;;;0.40;100.00;102163.53;4768379;30;20077;-81
2022/02/25 23:48:38;;;;;;;5.78;0.80;;;;;;;0.37;100.00;102153.13;4782019;30;20036;-81
2022/02/25 23:51:03;;;;;;;2.28;0.77;;;;;;;0.41;100.00;102174.97;4794467;30;20042;-81
2022/02/25 23:53:28;;;;;;;2.53;0.70;;;;;;;0.29;100.00;102167.81;4782956;30;20053;-80
2022/02/25 23:55:54;;;;;;;3.08;0.60;;;;;;;0.39;100.00;102185.63;4790769;30;20024;-81
2022/02/25 23:58:20;;;;;;;2.33;0.60;;;;;;;0.50;100.00;102192.03;4780678;30;20036;-81
